Time;durP1;ratioP1;P1;durP2;ratioP2;P2;SDS_P1;SDS_P2;PMS_P1;PMS_P2;Temp;Humidity;BMP_temperature;BMP_pressure;BME280_temperature;BME280_humidity;BME280_pressure;Samples;Min_cycle;Max_cycle;Signal;HPM_P1;HPM_P2
2021/01/27 00:00:39;;;;;;;49.55;25.95;;;;;;;8.38;43.88;99927.61;1772721;80;21149;-76
2021/01/27 00:03:07;;;;;;;41.77;23.20;;;;;;;8.38;43.80;99928.12;1751724;80;21138;-76
2021/01/27 00:05:38;;;;;;;39.48;23.65;;;;;;;8.39;43.74;99925.78;1772564;80;21200;-74
2021/01/27 00:08:06;;;;;;;39.95;23.35;;;;;;;8.40;43.72;99914.10;1751374;80;21397;-75
2021/01/27 00:10:34;;;;;;;41.65;23.77;;;;;;;8.29;43.82;99917.85;1772773;80;21193;-76
2021/01/27 00:13:03;;;;;;;43.00;24.32;;;;;;;8.30;43.83;99919.52;1772611;80;21125;-77
2021/01/27 00:15:33;;;;;;;38.33;22.67;;;;;;;8.29;43.87;99918.35;1772845;80;21157;-77
2021/01/27 00:18:02;;;;;;;43.78;22.17;;;;;;;8.29;43.90;99919.69;1773070;80;21157;-76
2021/01/27 00:20:30;;;;;;;37.00;21.48;;;;;;;8.28;43.86;99923.36;1772816;80;21372;-76
2021/01/27 00:22:58;;;;;;;35.25;20.70;;;;;;;8.28;43.83;99920.69;1772750;80;21197;-76
2021/01/27 00:25:29;;;;;;;37.83;21.15;;;;;;;8.27;43.77;99920.35;1772750;80;21111;-76
2021/01/27 00:27:58;;;;;;;36.10;20.32;;;;;;;8.26;43.76;99915.98;1773041;80;21153;-77
2021/01/27 00:30:36;;;;;;;39.50;21.68;;;;;;;8.24;43.73;99913.48;1772970;80;21703;-76
2021/01/27 00:33:05;;;;;;;35.35;19.92;;;;;;;8.23;43.75;99911.81;1773065;80;22281;-77
2021/01/27 00:35:36;;;;;;;36.93;21.33;;;;;;;8.21;43.73;99902.28;1772716;80;21153;-78
2021/01/27 00:38:18;;;;;;;39.48;22.22;;;;;;;8.18;43.77;99898.61;1772906;80;21118;-77
2021/01/27 00:40:46;;;;;;;39.08;22.20;;;;;;;8.16;43.92;99899.25;1772383;80;21673;-77
2021/01/27 00:43:14;;;;;;;39.65;22.62;;;;;;;8.14;43.93;99894.08;1772123;80;21201;-79
2021/01/27 00:45:41;;;;;;;36.23;19.57;;;;;;;8.12;44.01;99889.38;1772023;80;21794;-76
2021/01/27 00:48:10;;;;;;;36.50;20.52;;;;;;;8.12;44.03;99884.88;1772597;80;21525;-75
2021/01/27 00:50:37;;;;;;;34.58;19.45;;;;;;;8.12;43.99;99886.71;1772636;80;21210;-76
2021/01/27 00:53:06;;;;;;;32.45;19.37;;;;;;;8.13;43.96;99881.75;1772835;80;21153;-76
2021/01/27 00:55:35;;;;;;;34.98;21.00;;;;;;;8.11;44.07;99877.88;1772097;80;21409;-76
2021/01/27 00:58:03;;;;;;;31.55;18.85;;;;;;;8.10;44.11;99878.87;1772842;80;21865;-77
2021/01/27 01:00:35;;;;;;;32.25;19.73;;;;;;;8.20;43.88;99872.10;1772726;80;21177;-77
2021/01/27 01:03:06;;;;;;;37.55;20.35;;;;;;;8.20;43.56;99874.77;1772749;80;21568;-78
2021/01/27 01:05:40;;;;;;;37.55;20.70;;;;;;;8.19;43.38;99870.94;1772956;80;21615;-74
2021/01/27 01:08:09;;;;;;;35.25;20.45;;;;;;;8.14;43.33;99866.91;1773007;80;21145;-78
2021/01/27 01:10:41;;;;;;;33.40;20.77;;;;;;;8.08;43.47;99870.21;1772809;80;21386;-76
2021/01/27 01:13:13;;;;;;;39.23;23.05;;;;;;;7.90;43.77;99864.05;1773494;80;21181;-76
2021/01/27 01:15:41;;;;;;;33.30;20.02;;;;;;;7.84;43.91;99856.69;1773143;80;21138;-75
2021/01/27 01:18:11;;;;;;;37.93;21.23;;;;;;;7.82;43.94;99852.85;1773173;80;21580;-77
2021/01/27 01:20:40;;;;;;;35.13;21.23;;;;;;;7.79;44.06;99854.48;1773263;80;21161;-77
2021/01/27 01:23:09;;;;;;;33.45;20.48;;;;;;;7.80;44.04;99845.98;1772923;80;21751;-75
2021/01/27 01:25:38;;;;;;;34.55;20.05;;;;;;;7.79;44.13;99841.66;1772671;80;21209;-74
2021/01/27 01:28:06;;;;;;;37.15;21.33;;;;;;;7.78;44.15;99833.32;1773085;80;21177;-76
2021/01/27 01:30:38;;;;;;;35.48;20.50;;;;;;;7.78;44.17;99833.32;1773071;80;21627;-76
2021/01/27 01:33:22;;;;;;;30.97;19.17;;;;;;;7.77;44.15;99835.66;1772813;80;21176;-75
2021/01/27 01:35:50;;;;;;;33.00;20.27;;;;;;;7.77;44.03;99838.31;1772902;80;21198;-77
2021/01/27 01:38:18;;;;;;;45.40;23.47;;;;;;;7.74;44.07;99838.12;1772569;80;21197;-74
2021/01/27 01:40:59;;;;;;;53.90;27.10;;;;;;;7.71;44.27;99832.25;1772983;80;21165;-75
2021/01/27 01:43:35;;;;;;;55.08;29.18;;;;;;;7.67;44.37;99830.89;1773211;80;21174;-76
2021/01/27 01:46:18;;;;;;;49.93;26.05;;;;;;;7.68;44.46;99831.25;1773153;80;21153;-74
2021/01/27 01:48:52;;;;;;;53.50;26.23;;;;;;;7.68;44.56;99831.25;1773115;80;21380;-76
2021/01/27 01:51:50;;;;;;;47.08;25.43;;;;;;;7.69;44.55;99817.76;1772847;80;21150;-75
2021/01/27 01:54:43;;;;;;;56.58;30.02;;;;;;;7.72;44.56;99820.59;1772771;80;21540;-75
2021/01/27 01:57:24;;;;;;;62.75;31.80;;;;;;;7.76;44.73;99816.13;1772793;80;21181;-75
2021/01/27 02:00:03;;;;;;;71.10;35.92;;;;;;;7.78;44.75;99815.49;1773068;80;21525;-76
2021/01/27 02:02:34;;;;;;;82.00;40.15;;;;;;;7.78;44.66;99815.49;1771791;80;21413;-77
2021/01/27 02:05:10;;;;;;;75.42;36.40;;;;;;;7.77;44.78;99822.33;1773115;80;21189;-74
2021/01/27 02:07:38;;;;;;;68.40;33.23;;;;;;;7.76;44.82;99816.63;1772823;80;21158;-76
2021/01/27 02:10:07;;;;;;;63.50;32.80;;;;;;;7.75;44.93;99806.96;1773113;80;21188;-77
2021/01/27 02:13:07;;;;;;;60.50;28.95;;;;;;;7.74;45.02;99795.97;1772735;80;21141;-78
2021/01/27 02:15:56;;;;;;;;;;;;;;;7.77;45.02;99787.66;1775496;80;21314;-77
2021/01/27 02:18:44;;;;;;;14.73;9.27;;;;;;;7.79;44.83;99789.16;1773254;80;20215;-76
2021/01/27 02:21:41;;;;;;;;;;;;;;;7.81;44.29;99785.86;1775637;80;21133;-78
2021/01/27 02:24:29;;;;;;;11.95;7.87;;;;;;;7.86;43.90;99775.56;1772997;80;20540;-75
2021/01/27 02:27:07;;;;;;;12.70;7.97;;;;;;;7.91;43.66;99772.42;1773006;80;21607;-77
2021/01/27 02:29:50;;;;;;;11.60;7.95;;;;;;;7.96;43.47;99777.28;1773034;80;21805;-78
2021/01/27 02:32:54;;;;;;;13.53;7.97;;;;;;;7.99;43.34;99779.61;1772878;80;21149;-76
2021/01/27 02:35:49;;;;;;;14.25;9.00;;;;;;;8.02;43.32;99780.13;1772862;80;21521;-78
2021/01/27 02:38:31;;;;;;;12.93;8.08;;;;;;;8.06;43.21;99777.49;1772470;80;21133;-77
2021/01/27 02:41:19;;;;;;;12.98;8.15;;;;;;;8.10;43.09;99771.35;1772359;80;21170;-76
2021/01/27 02:43:51;;;;;;;11.33;7.62;;;;;;;8.10;42.91;99765.52;1773045;80;21712;-76
2021/01/27 02:46:30;;;;;;;12.93;8.35;;;;;;;8.11;42.84;99763.18;1772922;80;20946;-77
2021/01/27 02:49:34;;;;;;;14.05;9.10;;;;;;;8.13;42.86;99761.20;1773039;80;21105;-75
2021/01/27 02:52:16;;;;;;;15.32;9.30;;;;;;;8.13;42.76;99766.54;1772920;80;21223;-75
2021/01/27 02:55:06;;;;;;;15.78;9.23;;;;;;;8.16;42.70;99775.20;1772656;80;21189;-75
2021/01/27 02:57:39;;;;;;;13.68;8.90;;;;;;;8.18;42.78;99767.90;1772996;80;21451;-76
2021/01/27 03:00:30;;;;;;;14.78;9.38;;;;;;;8.20;42.72;99773.89;1773116;80;21082;-76
2021/01/27 03:03:03;;;;;;;16.37;10.13;;;;;;;8.20;42.69;99779.23;1754861;80;21193;-77
2021/01/27 03:05:38;;;;;;;16.15;10.50;;;;;;;8.19;42.78;99780.23;1741982;82;21193;-77
2021/01/27 03:08:23;;;;;;;15.83;10.95;;;;;;;8.19;43.10;99797.07;1741897;82;21239;-76
2021/01/27 03:11:06;;;;;;;17.12;12.00;;;;;;;8.20;43.28;99809.91;1741608;82;21820;-75
2021/01/27 03:13:35;;;;;;;18.07;11.97;;;;;;;8.18;43.56;99815.91;1741539;82;21218;-75
2021/01/27 03:16:08;;;;;;;18.50;12.03;;;;;;;8.13;43.77;99818.56;1741784;82;21206;-75
2021/01/27 03:18:40;;;;;;;18.42;11.75;;;;;;;8.11;43.96;99816.53;1742507;82;21214;-77
2021/01/27 03:21:15;;;;;;;22.62;13.88;;;;;;;8.09;44.06;99820.36;1742277;82;21566;-76
2021/01/27 03:23:55;;;;;;;19.82;12.33;;;;;;;8.07;44.19;99819.67;1742096;82;22070;-77
2021/01/27 03:26:32;;;;;;;19.52;13.30;;;;;;;8.07;44.27;99817.00;1742094;82;21628;-75
2021/01/27 03:29:10;;;;;;;22.15;13.20;;;;;;;8.04;44.50;99818.17;1741950;82;21185;-76
2021/01/27 03:31:38;;;;;;;20.23;13.32;;;;;;;8.01;44.69;99812.31;1742175;82;21677;-77
2021/01/27 03:34:14;;;;;;;20.45;13.10;;;;;;;8.00;44.64;99814.64;1742437;82;21214;-76
2021/01/27 03:36:48;;;;;;;21.80;14.15;;;;;;;8.02;44.64;99814.80;1742358;82;21285;-77
2021/01/27 03:39:16;;;;;;;21.95;14.07;;;;;;;8.01;44.82;99814.98;1742174;82;21201;-76
2021/01/27 03:41:49;;;;;;;23.20;14.70;;;;;;;8.00;44.92;99822.14;1741760;82;21198;-75
2021/01/27 03:44:35;;;;;;;24.63;14.45;;;;;;;8.03;44.90;99816.47;1720582;82;21632;-76
2021/01/27 03:47:10;;;;;;;21.27;14.05;;;;;;;8.05;44.95;99818.50;1737949;82;22385;-77
2021/01/27 03:49:55;;;;;;;24.65;13.90;;;;;;;8.09;45.00;99809.20;1741323;82;21376;-75
2021/01/27 03:52:34;;;;;;;22.52;13.62;;;;;;;8.11;45.13;99813.86;1740763;82;21463;-75
2021/01/27 03:55:24;;;;;;;24.18;14.23;;;;;;;8.12;45.01;99812.86;1741959;82;21167;-75
2021/01/27 03:58:06;;;;;;;26.97;16.35;;;;;;;8.18;44.79;99818.58;1729393;82;21194;-77
2021/01/27 04:00:40;;;;;;;19.62;12.55;;;;;;;8.27;44.61;99806.96;1810106;78;22761;-78
2021/01/27 04:03:19;;;;;;;20.77;12.80;;;;;;;8.22;44.23;99803.91;1753125;81;21145;-76
2021/01/27 04:05:47;;;;;;;27.48;16.12;;;;;;;8.26;44.03;99803.42;1780855;80;21351;-76
2021/01/27 04:08:16;;;;;;;22.95;15.18;;;;;;;8.26;44.13;99801.26;1752644;81;21639;-74
2021/01/27 04:10:44;;;;;;;21.23;13.78;;;;;;;8.27;44.28;99805.13;1781493;80;21143;-77
2021/01/27 04:13:14;;;;;;;18.90;12.40;;;;;;;8.28;44.27;99809.96;1753432;81;21213;-78
2021/01/27 04:15:42;;;;;;;21.30;11.93;;;;;;;8.28;44.05;99799.28;1780445;80;21196;-76
2021/01/27 04:18:09;;;;;;;14.93;10.60;;;;;;;8.19;44.07;99802.41;1780905;80;22748;-75
2021/01/27 04:20:38;;;;;;;13.58;10.85;;;;;;;8.43;43.44;99806.22;1780518;80;21642;-75
2021/01/27 04:23:05;;;;;;;15.75;11.08;;;;;;;8.49;43.10;99810.90;1780421;80;21150;-76
2021/01/27 04:25:33;;;;;;;17.40;11.60;;;;;;;8.52;42.91;99806.09;1781175;80;21646;-78
2021/01/27 04:28:01;;;;;;;13.88;10.72;;;;;;;8.53;42.86;99805.58;1783742;79;21152;-78
2021/01/27 04:30:31;;;;;;;15.60;10.43;;;;;;;8.55;42.75;99811.61;1791715;79;21880;-77
2021/01/27 04:33:01;;;;;;;17.55;10.35;;;;;;;8.54;42.67;99818.79;1781010;80;21160;-76
2021/01/27 04:35:29;;;;;;;16.02;10.05;;;;;;;8.45;42.88;99816.22;1781487;80;21667;-76
2021/01/27 04:37:58;;;;;;;17.17;10.10;;;;;;;8.38;42.98;99808.86;1794354;79;21354;-76
2021/01/27 04:40:42;;;;;;;18.57;11.03;;;;;;;8.27;43.15;99808.30;1764187;79;21160;-76
2021/01/27 04:43:22;;;;;;;15.35;9.95;;;;;;;8.26;43.12;99805.27;1756607;80;21438;-77
2021/01/27 04:46:16;;;;;;;18.32;10.65;;;;;;;8.21;43.10;99799.57;1750959;80;21188;-78
2021/01/27 04:49:13;;;;;;;20.17;10.95;;;;;;;8.22;43.11;99802.57;1774126;80;21210;-76
2021/01/27 04:52:02;;;;;;;13.30;9.30;;;;;;;8.19;43.14;99801.58;1775276;80;21201;-74
2021/01/27 04:55:10;;;;;;;14.60;9.85;;;;;;;8.21;43.21;99801.73;1852053;77;22638;-75
2021/01/27 04:57:50;;;;;;;17.50;9.80;;;;;;;8.17;43.21;99799.55;1848639;77;21158;-75
2021/01/27 05:00:52;;;;;;;15.68;9.73;;;;;;;8.16;43.20;99793.38;1848780;77;21356;-77
2021/01/27 05:03:45;;;;;;;13.58;9.35;;;;;;;8.18;43.19;99804.74;1848034;77;21190;-76
2021/01/27 05:06:17;;;;;;;14.00;9.45;;;;;;;8.18;43.17;99807.91;1835677;77;21147;-76
2021/01/27 05:09:15;;;;;;;15.03;9.30;;;;;;;8.17;43.27;99803.55;1848050;77;21175;-75
2021/01/27 05:11:43;;;;;;;15.30;10.13;;;;;;;8.18;43.21;99803.41;1847308;77;21151;-76
2021/01/27 05:14:13;;;;;;;17.02;9.93;;;;;;;8.18;43.25;99807.41;1832200;76;21644;-79
2021/01/27 05:16:41;;;;;;;15.93;10.30;;;;;;;8.18;43.28;99807.91;1848315;77;21388;-74
2021/01/27 05:19:09;;;;;;;19.05;10.50;;;;;;;8.18;43.27;99810.08;1847917;77;21482;-77
2021/01/27 05:21:48;;;;;;;15.40;9.48;;;;;;;8.17;43.29;99800.88;1846726;77;21089;-75
2021/01/27 05:24:16;;;;;;;15.95;10.28;;;;;;;8.17;43.27;99794.21;1847291;77;21134;-76
2021/01/27 05:27:09;;;;;;;16.82;10.98;;;;;;;8.15;43.29;99782.38;1839490;76;21512;-77
2021/01/27 05:29:51;;;;;;;19.10;11.35;;;;;;;8.12;43.37;99783.52;1791839;79;21106;-77
2021/01/27 05:32:21;;;;;;;25.72;15.32;;;;;;;8.12;43.35;99779.52;1822940;76;21119;-77
2021/01/27 05:34:51;;;;;;;18.95;12.30;;;;;;;8.11;43.39;99773.84;1834548;77;21198;-78
2021/01/27 05:37:35;;;;;;;18.70;11.85;;;;;;;8.10;43.43;99765.52;1848854;77;21139;-78
2021/01/27 05:40:34;;;;;;;19.55;11.70;;;;;;;8.10;43.43;99756.18;1848513;77;21790;-76
2021/01/27 05:43:17;;;;;;;18.20;11.12;;;;;;;8.09;43.35;99761.19;1849526;77;21139;-78
2021/01/27 05:45:47;;;;;;;19.75;12.43;;;;;;;8.07;43.36;99764.99;1848653;77;21114;-76
2021/01/27 05:48:32;;;;;;;18.92;11.68;;;;;;;8.05;43.40;99762.49;1847429;77;21015;-77
2021/01/27 05:51:09;;;;;;;21.70;14.05;;;;;;;8.07;43.38;99761.83;1848365;77;21115;-78
2021/01/27 05:53:37;;;;;;;28.65;16.32;;;;;;;8.02;43.42;99757.47;1872334;76;21342;-76
2021/01/27 05:56:19;;;;;;;36.35;18.52;;;;;;;8.00;43.49;99764.80;1832200;76;21626;-77
2021/01/27 05:59:06;;;;;;;34.63;17.17;;;;;;;7.99;43.54;99765.77;1800861;77;21636;-78
2021/01/27 06:01:44;;;;;;;33.67;16.05;;;;;;;7.98;43.55;99760.11;1798793;79;21086;-76
2021/01/27 06:04:16;;;;;;;30.52;16.60;;;;;;;7.97;43.43;99753.11;1846142;77;21181;-77
2021/01/27 06:07:04;;;;;;;27.20;16.70;;;;;;;7.98;43.37;99759.27;1826337;77;22160;-76
2021/01/27 06:09:44;;;;;;;28.75;16.75;;;;;;;7.99;43.43;99766.27;1802569;77;21230;-75
2021/01/27 06:12:24;;;;;;;;;;;;;;;7.98;43.44;99772.11;1805057;78;21176;-76
2021/01/27 06:15:10;;;;;;;19.17;12.13;;;;;;;7.98;43.47;99769.44;1805087;78;20667;-76
2021/01/27 06:17:47;;;;;;;16.50;11.38;;;;;;;7.95;43.42;99776.45;1812690;78;21171;-77
2021/01/27 06:20:31;;;;;;;17.37;11.80;;;;;;;7.95;43.43;99779.11;1817542;78;21199;-76
2021/01/27 06:23:34;;;;;;;17.65;11.55;;;;;;;7.94;43.48;99796.08;1799233;77;21306;-79
2021/01/27 06:26:44;;;;;;;21.82;12.50;;;;;;;7.91;43.51;99801.75;1792335;77;21220;-78
2021/01/27 06:30:01;;;;;;;20.57;12.07;;;;;;;7.95;43.54;99811.11;1839307;77;21233;-74
2021/01/27 06:32:44;;;;;;;25.48;14.07;;;;;;;7.96;43.57;99807.95;1799573;78;21533;-75
2021/01/27 06:35:21;;;;;;;17.48;11.78;;;;;;;7.96;43.57;99806.11;1836262;77;21301;-77
2021/01/27 06:37:54;;;;;;;15.63;10.47;;;;;;;7.97;43.59;99814.45;1831302;77;21819;-76
2021/01/27 06:40:50;;;;;;;16.15;11.10;;;;;;;7.98;43.50;99804.61;1768110;78;21886;-77
2021/01/27 06:43:46;;;;;;;17.62;10.48;;;;;;;8.00;43.46;99807.98;1803950;77;21575;-76
2021/01/27 06:46:37;;;;;;;19.32;9.93;;;;;;;8.01;43.32;99807.81;1816501;77;21654;-76
2021/01/27 06:49:20;;;;;;;14.33;8.88;;;;;;;8.01;43.34;99803.81;1815332;78;21110;-75
2021/01/27 06:52:12;;;;;;;17.42;10.18;;;;;;;8.02;43.35;99789.47;1817089;77;21132;-78
2021/01/27 06:54:51;;;;;;;15.23;9.35;;;;;;;8.03;43.35;99782.30;1819255;77;21110;-76
2021/01/27 06:57:24;;;;;;;14.95;9.15;;;;;;;8.04;43.29;99770.63;1814207;77;21101;-77
2021/01/27 07:00:35;;;;;;;14.03;8.83;;;;;;;8.03;43.35;99761.80;1784467;78;21077;-77
2021/01/27 07:03:29;;;;;;;14.43;9.65;;;;;;;8.03;43.58;99760.47;1824888;78;21247;-76
2021/01/27 07:06:31;;;;;;;14.95;9.08;;;;;;;8.00;43.92;99762.14;1829252;78;21116;-77
2021/01/27 07:09:21;;;;;;;17.80;9.58;;;;;;;8.00;44.23;99764.80;1813403;77;21731;-76
2021/01/27 07:12:05;;;;;;;14.95;9.28;;;;;;;8.01;44.41;99773.14;1825767;77;21157;-74
2021/01/27 07:15:06;;;;;;;11.57;8.78;;;;;;;8.02;44.55;99771.30;1822533;77;21159;-76
2021/01/27 07:18:02;;;;;;;15.38;9.05;;;;;;;8.04;44.59;99763.97;1802649;77;21120;-75
2021/01/27 07:20:41;;;;;;;13.30;9.30;;;;;;;8.02;44.66;99756.13;1815756;78;21175;-77
2021/01/27 07:23:17;;;;;;;15.20;10.13;;;;;;;8.01;44.88;99758.47;1828157;77;21678;-78
2021/01/27 07:25:57;;;;;;;16.05;9.88;;;;;;;8.02;44.96;99751.30;1821394;76;22205;-78
2021/01/27 07:28:56;;;;;;;22.00;12.37;;;;;;;8.02;45.02;99750.80;1812755;78;21547;-76
2021/01/27 07:31:35;;;;;;;18.77;11.18;;;;;;;8.02;45.13;99744.13;1785864;77;21389;-75
2021/01/27 07:34:36;;;;;;;15.25;10.20;;;;;;;8.02;45.25;99741.47;1810754;78;21167;-74
2021/01/27 07:37:36;;;;;;;17.00;10.40;;;;;;;8.02;45.41;99744.13;1800225;79;21218;-77
2021/01/27 07:40:15;;;;;;;16.27;9.73;;;;;;;8.02;45.59;99743.30;1822082;78;21171;-77
2021/01/27 07:43:06;;;;;;;17.17;10.08;;;;;;;8.01;45.83;99739.80;1833968;77;21173;-77
2021/01/27 07:45:37;;;;;;;14.55;9.98;;;;;;;8.05;45.87;99738.48;1823714;78;22075;-76
2021/01/27 07:48:32;;;;;;;17.45;11.22;;;;;;;8.06;45.96;99744.66;1809788;78;21117;-80
2021/01/27 07:51:10;;;;;;;13.95;9.58;;;;;;;8.06;46.02;99737.48;1819274;77;21247;-77
2021/01/27 07:53:39;;;;;;;14.75;10.35;;;;;;;8.03;46.09;99744.46;1820117;77;21209;-75
2021/01/27 07:56:34;;;;;;;16.07;11.22;;;;;;;8.04;46.17;99746.16;1794681;78;21220;-77
2021/01/27 07:59:13;;;;;;;17.32;11.75;;;;;;;8.06;46.33;99748.66;1805223;77;21368;-77
2021/01/27 08:01:47;;;;;;;16.42;11.15;;;;;;;8.04;46.41;99738.16;1827764;77;21173;-74
2021/01/27 08:04:41;;;;;;;18.17;10.95;;;;;;;8.03;46.51;99735.13;1812518;78;21153;-78
2021/01/27 08:07:32;;;;;;;15.68;10.78;;;;;;;8.05;46.57;99734.48;1821238;77;21242;-75
2021/01/27 08:10:19;;;;;;;18.30;12.03;;;;;;;8.01;46.64;99729.64;1818308;78;21167;-78
2021/01/27 08:12:55;;;;;;;18.62;11.73;;;;;;;8.01;46.55;99727.80;1820526;77;23051;-77
2021/01/27 08:15:31;;;;;;;18.27;11.38;;;;;;;8.04;46.46;99723.95;1806481;78;21200;-77
2021/01/27 08:18:08;;;;;;;18.07;12.03;;;;;;;8.04;46.48;99728.83;1803131;77;21203;-76
2021/01/27 08:20:46;;;;;;;17.98;11.83;;;;;;;8.03;46.57;99723.62;1810385;77;21179;-76
2021/01/27 08:23:26;;;;;;;18.02;12.45;;;;;;;8.02;46.64;99720.13;1819745;77;21083;-76
2021/01/27 08:26:06;;;;;;;21.25;13.15;;;;;;;8.02;46.72;99728.13;1821218;77;22216;-74
2021/01/27 08:28:43;;;;;;;17.15;11.40;;;;;;;8.03;46.79;99728.46;1821134;76;21097;-75
2021/01/27 08:31:18;;;;;;;14.75;9.78;;;;;;;8.06;46.89;99725.98;1826354;78;21117;-77
2021/01/27 08:33:55;;;;;;;15.65;10.30;;;;;;;8.08;46.86;99723.98;1822829;77;21100;-74
2021/01/27 08:36:35;;;;;;;13.72;9.15;;;;;;;8.11;46.90;99723.67;1829040;77;21093;-78
2021/01/27 08:39:09;;;;;;;16.70;10.30;;;;;;;8.16;46.91;99723.19;1822890;78;21161;-76
2021/01/27 08:42:02;;;;;;;23.65;10.40;;;;;;;8.18;46.88;99729.22;1831036;77;21117;-77
2021/01/27 08:44:40;;;;;;;16.25;10.18;;;;;;;8.21;46.89;99731.05;1811463;78;21142;-75
2021/01/27 08:47:23;;;;;;;16.37;10.43;;;;;;;8.25;46.89;99731.56;1840304;76;21077;-78
2021/01/27 08:50:48;;;;;;;15.95;11.25;;;;;;;8.28;46.86;99729.92;1806090;78;22292;-77
2021/01/27 08:53:22;;;;;;;16.82;11.55;;;;;;;8.29;46.95;99732.91;1806879;78;21208;-75
2021/01/27 08:55:58;;;;;;;21.70;15.45;;;;;;;8.29;46.98;99720.91;1799580;77;21152;-75
2021/01/27 08:58:38;;;;;;;26.07;17.87;;;;;;;8.25;47.03;99716.39;1805349;78;21096;-75
2021/01/27 09:01:10;;;;;;;23.95;15.53;;;;;;;8.23;47.22;99716.23;1836324;75;21118;-77
2021/01/27 09:03:45;;;;;;;21.30;14.65;;;;;;;8.21;47.20;99711.53;1853156;75;21558;-76
2021/01/27 09:06:45;;;;;;;22.95;15.13;;;;;;;8.24;47.09;99707.22;1813106;77;21353;-77
2021/01/27 09:09:22;;;;;;;17.60;12.43;;;;;;;8.25;47.18;99707.05;1757674;77;21216;-78
2021/01/27 09:12:01;;;;;;;15.95;11.15;;;;;;;8.19;47.38;99696.20;1814002;77;21742;-77
2021/01/27 09:14:28;;;;;;;15.72;10.05;;;;;;;8.17;47.52;99691.51;1824367;77;21123;-77
2021/01/27 09:16:57;;;;;;;18.40;11.60;;;;;;;8.16;47.67;99693.34;1842807;75;21591;-75
2021/01/27 09:19:28;;;;;;;18.37;11.10;;;;;;;8.17;47.73;99695.52;1811574;77;22226;-78
2021/01/27 09:22:05;;;;;;;16.27;10.88;;;;;;;8.18;47.84;99691.37;1821921;77;21157;-76
2021/01/27 09:24:46;;;;;;;19.12;11.48;;;;;;;8.20;47.95;99685.86;1840606;75;21193;-74
2021/01/27 09:27:27;;;;;;;18.70;11.75;;;;;;;8.22;48.00;99686.52;1806967;78;21101;-75
2021/01/27 09:30:10;;;;;;;19.30;13.03;;;;;;;8.20;48.04;99685.86;1838054;76;21088;-75
2021/01/27 09:32:40;;;;;;;19.67;12.10;;;;;;;8.20;48.17;99693.86;1839445;76;21398;-75
2021/01/27 09:35:20;;;;;;;18.05;12.35;;;;;;;8.18;48.21;99691.88;1841736;76;21152;-77
2021/01/27 09:38:11;;;;;;;16.75;11.78;;;;;;;8.16;48.34;99690.68;1809488;78;21138;-75
2021/01/27 09:40:53;;;;;;;16.85;11.70;;;;;;;8.12;48.35;99687.48;1842852;76;21090;-77
2021/01/27 09:43:22;;;;;;;20.17;12.03;;;;;;;8.10;48.44;99688.67;1808706;78;21110;-77
2021/01/27 09:45:51;;;;;;;18.23;10.10;;;;;;;8.08;48.57;99688.84;1826302;77;21350;-75
2021/01/27 09:48:22;;;;;;;18.12;11.88;;;;;;;8.06;48.63;99691.31;1824421;77;21124;-77
2021/01/27 09:50:59;;;;;;;21.77;14.18;;;;;;;8.03;48.74;99688.45;1826045;77;21949;-77
2021/01/27 09:53:36;;;;;;;17.40;13.00;;;;;;;8.02;48.90;99688.63;1806534;77;21240;-77
2021/01/27 09:56:04;;;;;;;21.07;14.73;;;;;;;8.02;48.97;99680.63;1813849;77;21084;-76
2021/01/27 09:58:40;;;;;;;23.32;16.67;;;;;;;8.06;49.02;99681.48;1846881;77;21186;-76
2021/01/27 10:01:16;;;;;;;21.68;15.45;;;;;;;8.07;49.05;99680.97;1809044;78;21094;-76
2021/01/27 10:03:47;;;;;;;20.55;14.23;;;;;;;8.07;49.13;99672.98;1802144;78;21485;-75
2021/01/27 10:06:42;;;;;;;19.05;12.68;;;;;;;8.06;49.14;99674.81;1817721;78;21110;-77
2021/01/27 10:09:23;;;;;;;20.90;12.80;;;;;;;8.07;49.13;99679.64;1792777;78;21548;-75
2021/01/27 10:12:02;;;;;;;20.02;12.93;;;;;;;8.04;49.23;99678.63;1813132;77;21608;-77
2021/01/27 10:14:34;;;;;;;17.25;11.88;;;;;;;8.04;49.26;99678.16;1823385;78;21152;-74
2021/01/27 10:17:05;;;;;;;21.80;14.18;;;;;;;8.07;49.24;99679.14;1819625;78;21128;-79
2021/01/27 10:19:44;;;;;;;18.57;13.35;;;;;;;8.10;49.33;99676.66;1794228;78;21089;-76
2021/01/27 10:22:13;;;;;;;19.62;13.53;;;;;;;8.12;49.38;99672.81;1811609;77;21562;-76
2021/01/27 10:24:50;;;;;;;17.70;12.25;;;;;;;8.14;49.35;99674.84;1840431;76;21624;-76
2021/01/27 10:27:28;;;;;;;18.35;13.10;;;;;;;8.15;49.35;99674.34;1801685;77;21094;-77
2021/01/27 10:30:00;;;;;;;17.40;11.78;;;;;;;8.17;49.30;99668.84;1778853;78;21126;-75
2021/01/27 10:32:38;;;;;;;16.35;11.93;;;;;;;8.17;49.30;99668.33;1805790;78;21846;-76
2021/01/27 10:35:27;;;;;;;16.12;11.38;;;;;;;8.14;49.29;99662.84;1815585;77;21073;-76
2021/01/27 10:38:08;;;;;;;16.82;10.78;;;;;;;8.10;49.38;99661.48;1841310;76;21358;-75
2021/01/27 10:40:36;;;;;;;17.23;10.48;;;;;;;8.11;49.36;99655.16;1845515;75;21180;-75
2021/01/27 10:43:15;;;;;;;14.70;10.05;;;;;;;8.08;49.38;99658.64;1839079;76;21094;-76
2021/01/27 10:45:43;;;;;;;16.62;11.18;;;;;;;8.07;49.44;99651.14;1835015;75;21095;-76
2021/01/27 10:48:23;;;;;;;16.82;10.65;;;;;;;8.03;49.47;99642.28;1841115;75;21114;-79
2021/01/27 10:51:09;;;;;;;16.23;11.28;;;;;;;8.02;49.55;99645.95;1809628;78;21186;-78
2021/01/27 10:53:43;;;;;;;16.90;10.53;;;;;;;8.01;49.57;99635.80;1822270;77;21101;-76
2021/01/27 10:56:14;;;;;;;16.45;10.60;;;;;;;7.94;49.72;99632.59;1818265;76;21106;-75
2021/01/27 10:58:43;;;;;;;19.23;13.00;;;;;;;7.93;49.72;99634.92;1819728;77;21079;-76
2021/01/27 11:01:12;;;;;;;25.12;17.10;;;;;;;7.92;49.68;99634.59;1817021;77;21111;-75
2021/01/27 11:03:40;;;;;;;13.72;9.73;;;;;;;7.87;49.83;99633.75;1829734;77;21385;-74
2021/01/27 11:06:10;;;;;;;11.73;8.65;;;;;;;7.82;49.95;99630.23;1816073;78;21138;-76
2021/01/27 11:08:45;;;;;;;13.50;8.35;;;;;;;7.81;50.01;99633.90;1783708;77;21120;-76
2021/01/27 11:11:20;;;;;;;11.90;8.83;;;;;;;7.81;50.11;99631.70;1780483;78;21109;-75
2021/01/27 11:13:55;;;;;;;12.23;8.45;;;;;;;7.80;50.07;99630.04;1794853;76;21202;-76
2021/01/27 11:16:30;;;;;;;11.35;8.08;;;;;;;7.77;50.15;99621.05;1831675;75;21200;-75
2021/01/27 11:19:16;;;;;;;;;;;;;;;;;;;;;
2021/01/27 11:21:48;;;;;;;11.38;8.10;;;;;;;7.75;50.24;99616.36;1859691;75;22888;-77
2021/01/27 11:24:17;;;;;;;12.73;8.48;;;;;;;7.68;50.29;99614.84;1837310;76;21907;-76
2021/01/27 11:26:46;;;;;;;9.40;6.92;;;;;;;7.66;50.36;99617.33;1831771;77;21205;-78
2021/01/27 11:29:14;;;;;;;13.18;9.80;;;;;;;7.62;50.47;99610.97;1839611;77;21512;-77
2021/01/27 11:31:43;;;;;;;16.25;11.20;;;;;;;7.62;50.49;99607.47;1838487;77;21215;-79
2021/01/27 11:34:12;;;;;;;23.07;15.10;;;;;;;7.62;50.51;99604.80;1777212;79;21428;-78
2021/01/27 11:36:45;;;;;;;15.93;11.15;;;;;;;7.62;50.57;99598.98;1764322;80;21189;-78
2021/01/27 11:39:14;;;;;;;17.52;10.65;;;;;;;7.63;50.62;99593.17;1750872;80;21211;-77
2021/01/27 11:41:42;;;;;;;15.32;9.28;;;;;;;7.62;50.63;99588.31;1769712;78;21200;-78
2021/01/27 11:44:10;;;;;;;14.23;8.45;;;;;;;7.60;50.67;99592.98;1792798;78;21444;-75
2021/01/27 11:46:39;;;;;;;14.87;8.80;;;;;;;7.54;50.80;99590.97;1785142;78;21217;-76
2021/01/27 11:49:08;;;;;;;11.43;6.90;;;;;;;7.56;50.82;99587.63;1795404;79;21162;-75
2021/01/27 11:51:35;;;;;;;13.08;8.78;;;;;;;7.57;50.84;99582.63;1742631;80;21875;-78
2021/01/27 11:54:03;;;;;;;12.60;9.05;;;;;;;7.55;50.83;99587.30;1790534;79;21663;-78
2021/01/27 11:56:31;;;;;;;15.03;10.20;;;;;;;7.56;50.92;99584.14;1782841;78;21173;-76
2021/01/27 11:58:59;;;;;;;13.15;9.53;;;;;;;7.56;50.93;99584.97;1784842;79;21142;-77
2021/01/27 12:01:30;;;;;;;12.80;8.35;;;;;;;7.55;51.00;99584.64;1795995;78;21090;-78
2021/01/27 12:04:00;;;;;;;11.63;8.28;;;;;;;7.55;51.00;99578.48;1766432;79;21377;-77
2021/01/27 12:06:27;;;;;;;12.35;8.83;;;;;;;7.53;50.97;99579.12;1777831;78;21145;-76
2021/01/27 12:08:57;;;;;;;10.78;7.55;;;;;;;7.49;51.00;99577.27;1776796;79;21136;-76
2021/01/27 12:11:25;;;;;;;10.20;7.10;;;;;;;7.42;51.14;99574.92;1794264;78;21098;-75
2021/01/27 12:13:52;;;;;;;10.93;7.35;;;;;;;7.43;51.19;99571.25;1773907;79;21070;-76
2021/01/27 12:16:21;;;;;;;10.55;8.03;;;;;;;7.43;51.20;99564.59;1778056;78;21212;-77
2021/01/27 12:18:49;;;;;;;15.23;10.93;;;;;;;7.44;51.18;99566.25;1765633;79;21118;-75